Create Custom Reports and Graphics: Custom Report

Latest Observations

Map

15 Minute Data

South County Map

Map

15 Minute Data

Northern Sonoma County Latest

13 Stations

15 Minute Data | America/Los_Angeles
as of 2/28/20 7:43 AM PST
Station Date Time Temp (°F) RH (%) Dew Pt (°F) Wind Spd (mph) Wind Dir (°) Wind Gust (mph) Latest Rain (In) Daily Rain (In) Daily Min Temp (°F) Daily Max Temp (°F)
Cooley-Rockpile 2/28/20 0730 60.4   1.1 45   1 38.9   1.9 0.0 NNW | 328 0.7   7.9 0.00 0.00 58.4   2.3 61.8   2.0
Cooley Lower Remote 2/28/20 0715 58.5   2.6 50   5 40.0   0.2 2.0 NNW | 345 3.2   0.8 0.00 0.00 56.0   1.1 61.0   2.3
Rancho Alexander-Cloverdale 2/28/20 0730 49.1   2.0 76   3 41.9   1.1 8.4 NW | 323 12.9   0.0 0.00 0.00 48.5   5.7 54.1   0.2
Ranch 38 (Cloverdale-SE) 2/28/20 0730 52.0   4.0 65   10 40.8   0.1 3.5 N | 353 7.2   1.3 0.00 0.00 51.2   3.6 57.7   1.3
Hoffman - Geyserville 2/28/20 0730 45.4   3.9 87   4 41.8   2.7 0.6 W | 264 3.1   0.8 0.00 0.00 42.1   4.5 48.0   2.2
Geyserville Ranch 3 2/28/20 0730 47.4   3.5 84   4 42.9   2.2 2.5 WNW | 298 3.9   1.0 0.00 0.00 43.6   3.3 51.2   3.7
Ranch 40 (Geyserville-NE) 2/28/20 0730 53.6   3.3 67   6 42.9   0.8 2.1 SE | 126 3.0   0.2 0.00 0.00 48.8   0.4 57.7   0.5
Geyserville - S (Nervo Station) 2/28/20 0730 49.7   2.7 78   4 43.1   1.5 0.0 N | 0 0.0   0.0 0.00 0.00 46.4   2.3 53.8   1.9
River Oaks (Lytton) 2/28/20 0730 43.4   3.5 96   1 42.5   3.7 1.3 E | 92 2.1   1.0 0.00 0.00 39.4   3.9 44.6   2.5
Piccolo - Alexander Valley 2/28/20 0730 44.1   3.9 100   0 44.1   4.0 1.6 NE | 56 3.1   0.9 0.00 0.00 41.4   3.4 46.1   1.1
Red Fan 2/28/20 0730 44.1   3.8 96   2 43.2   3.3 0.1 E | 98 1.5   1.2 0.00 0.00 42.7   4.0 48.0   1.1
Landslide 2/28/20 0730 41.1   3.5 100   0 41.0   3.5 0.1 SE | 144 0.8   0.8 0.00 0.00 40.1   2.9 44.7   1.2
Dry Creek Valley 2/28/20 0730 46.7   2.4 89   2 43.7   3.0 1.7 NNE | 22 2.7   0.2 0.00 0.00 44.2   4.3 48.6   1.0
Max     60.4 100 44.1 8.4 - 12.9 0.00 0.00 58.4 61.8
Avg     48.9 80 42.1 1.8 - 3.4 0.00 - - -
Min     41.1 45 38.9 0.0 - 0.0 0.00 0.00 39.4 44.6

Central Sonoma County Latest

23 Stations

15 Minute Data | America/Los_Angeles
as of 2/28/20 7:43 AM PST
Station Date Time Temp (°F) RH (%) Dew Pt (°F) Wind Spd (mph) Wind Dir (°) Wind Gust (mph) Latest Rain (In) Daily Rain (In) Daily Min Temp (°F) Daily Max Temp (°F)
Healdsburg - S (Sodini) 2/28/20 0730 45.7   2.6 90   1 42.8   2.3 0.0 N | 0 0.0   0.0 0.00 0.00 42.7   2.4 48.7   2.8
Ranch 8 (Windsor-NW) 2/28/20 0730 49.5   4.0 83   2 44.7   3.2 0.4 NE | 34 1.6   1.6 0.00 0.00 47.3   2.5 52.5   2.5
Foothill Ranch 16 2/28/20 0730 44.6   3.0 91   4 42.2   1.8 0.4 W | 270 1.6   0.7 0.00 0.00 43.3   2.8 52.7   5.3
Airport Ranch 14 2/28/20 0730 45.3   2.7 93   2 43.4   2.1 0.5 SSW | 199 2.6   1.1 0.00 0.00 43.4   3.4 49.4   2.9
Silk Road 2/28/20 0730 42.6   3.2 98   1 42.1   3.0 0.6 SSW | 194 1.8   0.3 0.00 0.00 41.3   4.1 46.6   3.0
Oak Meadows Ranch 5 2/28/20 0730 43.8   2.2 97   1 42.9   2.0 0.8 SE | 135 2.0   0.6 0.00 0.00 42.0   4.0 49.6   4.1
Laughlin Rd (Windsor-South) 2/28/20 0730 44.9   3.8 94   2 43.3   3.3 - - - 0.00 0.00 43.9   4.2 50.3   1.3
Barnes Rd (SE Fulton) 2/28/20 0730 43.1   3.4 94   0 41.6   3.5 0.7 SSE | 156 1.7   0.2 0.00 0.00 42.0   3.0 49.3   2.7
Crinella Ranch 21 2/28/20 0730 43.8   2.0 94   1 42.1   1.8 2.0 SSE | 155 3.7   2.3 0.00 0.00 42.4   3.8 49.0   2.9
Goldfields (NW Santa Rosa) 2/28/20 0730 43.8   0.6 95   5 42.3   2.1 2.0 SSE | 156 3.2   1.5 0.00 0.00 42.2   2.8 49.5   2.7
Denner Ranch Base 2/28/20 0730 42.8   2.0 96   0 41.6   2.1 1.7 SSE | 168 2.6   1.8 0.00 0.00 41.8   3.6 47.1   1.8
Guerneville Road (Santa Rosa Plains) 2/28/20 0730 41.6   2.9 98   0 41.1   2.8 1.0 W | 260 3.3   2.5 0.00 0.00 40.4   3.2 46.4   2.4
Rich Ranch (Guerneville Rd) 2/28/20 0730 41.4   0.6 99   5 41.0   1.9 - - - - - 40.5   4.0 45.4   1.7
Occidental Rd (Sebastopol) 2/28/20 0730 41.9   2.8 100   0 41.9   2.8 1.1 E | 93 2.8   1.5 0.00 0.00 40.0   3.6 45.7   1.2
Garrison Ranch 12 2/28/20 0730 42.8   3.2 100   0 42.8   3.3 0.4 NW | 310 1.4   1.4 0.00 0.00 42.2   3.3 47.8   3.1
Laughlin Rd (Guerneville) 2/28/20 0730 39.8   4.2 100   0 39.8   4.2 0.0 N | 0 0.0   2.2 0.00 0.00 38.9   4.0 43.9   2.5
Korbel Winery 2/28/20 0730 42.7   4.0 100   0 42.7   4.1 0.0 N | 0 0.0   0.0 0.00 0.00 41.3   3.5 45.3   1.9
Shone Farms (Forestville) 2/28/20 0730 45.0   1.0 93   3 43.0   1.7 1.6 SW | 215 2.6   0.9 0.00 0.00 44.0   3.8 50.9   2.2
Ranch 30 (Forestville-NE) 2/28/20 0730 43.1   2.4 98   1 42.5   2.6 0.5 NE | 41 2.4   1.2 0.00 0.00 41.8   3.8 47.7   1.4
Dutton Ranch (Graton-West) 2/28/20 0730 42.5   4.0 100   0 42.5   4.0 0.9 SSW | 196 2.4   0.0 0.00 0.00 40.7   4.0 45.5   1.5
Mill Station Rd (Graton-South) 2/28/20 0730 39.9   3.1 98   0 39.3   3.1 1.1 ENE | 59 3.6   1.2 0.00 0.00 38.2   3.6 44.6   2.4
Burnside Road (Sebastopol Hills) 2/28/20 0730 49.9   1.8 79   1 43.6   2.2 1.7 ENE | 78 5.6   3.5 0.00 0.00 49.4   1.5 56.8   2.6
Hirsch Vineyards 2/28/20 0730 60.9   1.1 45   0 39.2   1.1 1.4 S | 178 2.2   5.9 0.00 0.00 59.1   1.9 64.1   0.5
Max     60.9 100 44.7 2.0 - 5.6 0.00 0.00 59.1 64.1
Avg     44.4 93 42.1 0.9 - 2.3 0.00 - - -
Min     39.8 45 39.2 0.0 - 0.0 0.00 0.00 38.2 43.9

Southern Sonoma County Latest

14 Stations

15 Minute Data | America/Los_Angeles
as of 2/28/20 7:43 AM PST
Station Date Time Temp (°F) RH (%) Dew Pt (°F) Wind Spd (mph) Wind Dir (°) Wind Gust (mph) Latest Rain (In) Daily Rain (In) Daily Min Temp (°F) Daily Max Temp (°F)
Lower Bennett Valley 2/28/20 0700 40.0   4.7 98   0 39.6   4.7 0.9 SSW | 204 2.7   0.8 0.00 0.00 37.5   3.1 45.0   5.6
Kunde - Kenwood 2/28/20 0700 38.5   2.2 93   2 36.6   1.8 0.0 N | 0 0.0   2.3 0.00 0.00 37.9   2.8 45.1   2.2
Sonoma Valley (Bedrock) 2/28/20 0730 41.2   2.0 96   4 40.3   2.9 0.1 N | 7 2.4   0.7 0.00 0.00 39.8   2.5 47.8   0.9
Arnold (Sonoma) 2/28/20 0730 42.7   1.3 93   1 40.8   1.0 1.8 NNW | 338 3.3   2.2 0.00 0.00 39.4   1.2 49.4   0.8
Schellville 2/28/20 0730 41.5   1.0 97   1 40.9   0.8 0.0 N | 0 0.0   0.0 0.00 0.00 40.1   2.3 47.5   2.0
Napoli (Sonoma-SE) 2/28/20 0730 42.6   2.7 94   2 41.0   2.1 0.0 N | 0 0.0   1.4 0.00 0.00 40.8   2.0 47.3   1.2
Diamond R71 (Carneros) 2/28/20 0730 52.9   0.5 71   3 43.9   0.7 3.2 NNW | 330 4.8   2.0 0.00 0.00 50.8   2.3 63.0   7.5
Huichica Upper 2/28/20 0730 55.7   5.7 57   22 40.8   3.1 2.3 ENE | 78 3.0   1.5 - - 50.5   3.3 62.5   2.9
Huichica-Lower 2/28/20 0730 46.3   3.3 89   8 43.3   0.9 0.0 N | 0 0.0   3.6 0.00 0.00 41.6   2.3 49.0   1.4
Stony Point (West Rohnert Park) 2/28/20 0730 38.7   2.2 99   0 38.4   2.1 0.0 N | 0 0.0   0.0 0.00 0.00 38.0   3.6 43.8   3.9
Asellus (Penngrove) 2/28/20 0730 39.1   0.7 100   1 39.1   0.9 0.8 NNW | 332 2.1   1.2 0.00 0.00 37.1   3.2 44.7   4.8
Rodger's Creek 2/28/20 0730 55.6   1.5 60   3 41.8   0.0 1.5 N | 356 2.6   0.7 0.00 0.00 54.4   4.8 64.4   2.3
Frates R10 (East Petaluma) 2/28/20 0730 39.9   3.3 98   0 39.3   3.2 0.1 ESE | 114 0.8   0.4 0.00 0.00 38.3   3.4 43.8   3.2
Sleepy Hollow-Lakeville 2/28/20 0730 43.9   2.5 100   0 43.9   2.5 3.8 NW | 307 5.7   2.7 0.00 0.00 41.3   4.1 47.9   4.4
Max     55.7 100 43.9 3.8 - 5.7 0.00 0.00 54.4 64.4
Avg     44.2 89 40.7 1.0 - 2.0 0.00 - - -
Min     38.5 57 36.6 0.0 - 0.0 0.00 0.00 37.1 43.8